sensor_id;sensor_type;location;lat;lon;timestamp;pressure;altitude;pressure_sealevel;temperature;humidity
63009;BME280;49099;28.428;-16.488;2023-05-11T00:01:07;98654.59;;;20.52;64.83
63009;BME280;49099;28.428;-16.488;2023-05-11T00:03:35;98653.38;;;20.50;65.68
63009;BME280;49099;28.428;-16.488;2023-05-11T00:06:03;98651.47;;;20.50;65.72
63009;BME280;49099;28.428;-16.488;2023-05-11T00:08:30;98653.81;;;20.52;66.18
63009;BME280;49099;28.428;-16.488;2023-05-11T00:10:57;98647.81;;;20.55;66.55
63009;BME280;49099;28.428;-16.488;2023-05-11T00:13:27;98639.72;;;20.55;66.63
63009;BME280;49099;28.428;-16.488;2023-05-11T00:15:54;98647.81;;;20.55;66.42
63009;BME280;49099;28.428;-16.488;2023-05-11T00:18:22;98645.09;;;20.55;66.36
63009;BME280;49099;28.428;-16.488;2023-05-11T00:20:49;98632.72;;;20.54;65.75
63009;BME280;49099;28.428;-16.488;2023-05-11T00:23:16;98639.72;;;20.55;65.55
63009;BME280;49099;28.428;-16.488;2023-05-11T00:25:43;98645.41;;;20.53;65.92
63009;BME280;49099;28.428;-16.488;2023-05-11T00:28:11;98646.34;;;20.57;65.87
63009;BME280;49099;28.428;-16.488;2023-05-11T00:30:39;98651.88;;;20.61;66.28
63009;BME280;49099;28.428;-16.488;2023-05-11T00:33:07;98646.69;;;20.56;66.48
63009;BME280;49099;28.428;-16.488;2023-05-11T00:35:34;98648.25;;;20.57;66.58
63009;BME280;49099;28.428;-16.488;2023-05-11T00:38:02;98644.63;;;20.53;65.86
63009;BME280;49099;28.428;-16.488;2023-05-11T00:40:33;98638.31;;;20.49;65.09
63009;BME280;49099;28.428;-16.488;2023-05-11T00:43:00;98638.00;;;20.42;65.88
63009;BME280;49099;28.428;-16.488;2023-05-11T00:45:27;98628.53;;;20.36;67.01
63009;BME280;49099;28.428;-16.488;2023-05-11T00:47:54;98629.97;;;20.33;66.12
63009;BME280;49099;28.428;-16.488;2023-05-11T00:50:21;98628.69;;;20.30;65.26
63009;BME280;49099;28.428;-16.488;2023-05-11T00:52:48;98635.84;;;20.26;66.46
63009;BME280;49099;28.428;-16.488;2023-05-11T00:55:18;98625.75;;;20.23;65.99
63009;BME280;49099;28.428;-16.488;2023-05-11T00:57:46;98628.09;;;20.25;66.62
63009;BME280;49099;28.428;-16.488;2023-05-11T01:00:13;98623.03;;;20.23;67.12
63009;BME280;49099;28.428;-16.488;2023-05-11T01:02:41;98624.66;;;20.16;66.11
63009;BME280;49099;28.428;-16.488;2023-05-11T01:05:08;98615.97;;;20.10;67.19
63009;BME280;49099;28.428;-16.488;2023-05-11T01:07:44;98619.13;;;20.12;66.97
63009;BME280;49099;28.428;-16.488;2023-05-11T01:10:23;98622.75;;;20.16;64.49
63009;BME280;49099;28.428;-16.488;2023-05-11T01:18:26;98609.47;;;20.11;63.60
63009;BME280;49099;28.428;-16.488;2023-05-11T01:21:00;98601.75;;;20.01;63.17
63009;BME280;49099;28.428;-16.488;2023-05-11T01:32:06;98593.03;;;20.04;64.82
63009;BME280;49099;28.428;-16.488;2023-05-11T01:34:38;98591.91;;;20.05;65.20
63009;BME280;49099;28.428;-16.488;2023-05-11T01:37:13;98593.16;;;20.08;65.66
63009;BME280;49099;28.428;-16.488;2023-05-11T01:40:09;98597.56;;;20.12;65.06
63009;BME280;49099;28.428;-16.488;2023-05-11T01:42:48;98587.31;;;20.06;65.00
63009;BME280;49099;28.428;-16.488;2023-05-11T01:45:17;98591.44;;;20.03;64.95
63009;BME280;49099;28.428;-16.488;2023-05-11T01:47:47;98582.41;;;19.99;65.83
63009;BME280;49099;28.428;-16.488;2023-05-11T01:50:16;98590.00;;;20.06;65.66
63009;BME280;49099;28.428;-16.488;2023-05-11T01:52:46;98589.66;;;20.07;64.61
63009;BME280;49099;28.428;-16.488;2023-05-11T01:55:16;98585.88;;;20.08;64.88
63009;BME280;49099;28.428;-16.488;2023-05-11T01:57:46;98586.00;;;20.12;65.78
63009;BME280;49099;28.428;-16.488;2023-05-11T02:00:16;98587.09;;;20.19;65.97
63009;BME280;49099;28.428;-16.488;2023-05-11T02:02:45;98576.28;;;20.28;65.58
63009;BME280;49099;28.428;-16.488;2023-05-11T02:05:18;98569.91;;;20.33;65.64
63009;BME280;49099;28.428;-16.488;2023-05-11T02:07:48;98573.06;;;20.35;65.79
63009;BME280;49099;28.428;-16.488;2023-05-11T02:10:18;98571.22;;;20.26;66.07
63009;BME280;49099;28.428;-16.488;2023-05-11T02:12:48;98564.09;;;20.22;66.31
63009;BME280;49099;28.428;-16.488;2023-05-11T02:15:20;98566.84;;;20.13;66.46
63009;BME280;49099;28.428;-16.488;2023-05-11T02:17:48;98554.22;;;20.05;66.67
63009;BME280;49099;28.428;-16.488;2023-05-11T02:20:17;98564.97;;;20.05;66.28
63009;BME280;49099;28.428;-16.488;2023-05-11T02:22:45;98564.53;;;20.03;66.45
63009;BME280;49099;28.428;-16.488;2023-05-11T02:25:16;98554.66;;;20.07;66.31
63009;BME280;49099;28.428;-16.488;2023-05-11T02:27:44;98560.53;;;20.09;66.21
63009;BME280;49099;28.428;-16.488;2023-05-11T02:30:11;98556.56;;;20.07;66.53
63009;BME280;49099;28.428;-16.488;2023-05-11T02:32:46;98553.56;;;20.08;66.21
63009;BME280;49099;28.428;-16.488;2023-05-11T02:35:19;98542.66;;;20.04;66.37
63009;BME280;49099;28.428;-16.488;2023-05-11T02:37:48;98542.81;;;20.08;66.66
63009;BME280;49099;28.428;-16.488;2023-05-11T02:40:20;98538.50;;;20.16;66.15
63009;BME280;49099;28.428;-16.488;2023-05-11T02:42:55;98540.06;;;20.17;66.28
63009;BME280;49099;28.428;-16.488;2023-05-11T02:45:23;98533.56;;;20.18;66.26
63009;BME280;49099;28.428;-16.488;2023-05-11T02:47:54;98528.50;;;20.16;66.34
63009;BME280;49099;28.428;-16.488;2023-05-11T02:50:23;98523.69;;;20.22;65.94
63009;BME280;49099;28.428;-16.488;2023-05-11T02:52:56;98514.09;;;20.12;65.95
63009;BME280;49099;28.428;-16.488;2023-05-11T02:55:24;98509.44;;;20.00;66.49
63009;BME280;49099;28.428;-16.488;2023-05-11T02:57:53;98506.13;;;19.95;66.52
63009;BME280;49099;28.428;-16.488;2023-05-11T03:00:21;98496.97;;;19.87;66.31
63009;BME280;49099;28.428;-16.488;2023-05-11T03:02:48;98502.03;;;19.89;66.16
63009;BME280;49099;28.428;-16.488;2023-05-11T03:05:15;98496.03;;;19.83;66.19
63009;BME280;49099;28.428;-16.488;2023-05-11T03:07:43;98493.84;;;19.85;66.01
63009;BME280;49099;28.428;-16.488;2023-05-11T03:10:11;98494.41;;;19.91;65.76
63009;BME280;49099;28.428;-16.488;2023-05-11T03:12:38;98492.38;;;19.88;65.92
63009;BME280;49099;28.428;-16.488;2023-05-11T03:15:06;98492.38;;;19.88;66.02
63009;BME280;49099;28.428;-16.488;2023-05-11T03:17:34;98489.69;;;19.88;66.30
63009;BME280;49099;28.428;-16.488;2023-05-11T03:20:02;98483.53;;;19.87;66.14
63009;BME280;49099;28.428;-16.488;2023-05-11T03:22:30;98502.69;;;19.86;66.09
63009;BME280;49099;28.428;-16.488;2023-05-11T03:24:59;98494.28;;;19.87;65.92
63009;BME280;49099;28.428;-16.488;2023-05-11T03:27:28;98498.22;;;19.90;65.81
63009;BME280;49099;28.428;-16.488;2023-05-11T03:29:56;98490.94;;;19.90;66.01
63009;BME280;49099;28.428;-16.488;2023-05-11T03:32:24;98489.69;;;19.88;66.01
63009;BME280;49099;28.428;-16.488;2023-05-11T03:34:51;98484.97;;;19.85;65.93
63009;BME280;49099;28.428;-16.488;2023-05-11T03:37:19;98494.91;;;19.84;66.24
63009;BME280;49099;28.428;-16.488;2023-05-11T03:39:51;98485.59;;;19.82;66.14
63009;BME280;49099;28.428;-16.488;2023-05-11T03:42:21;98487.84;;;19.80;65.90
63009;BME280;49099;28.428;-16.488;2023-05-11T03:44:50;98477.69;;;19.76;66.14
63009;BME280;49099;28.428;-16.488;2023-05-11T03:47:22;98480.59;;;19.71;66.15
63009;BME280;49099;28.428;-16.488;2023-05-11T03:49:51;98483.75;;;19.73;65.88
63009;BME280;49099;28.428;-16.488;2023-05-11T03:52:20;98474.25;;;19.67;66.19
63009;BME280;49099;28.428;-16.488;2023-05-11T03:54:47;98474.91;;;19.64;66.15
63009;BME280;49099;28.428;-16.488;2023-05-11T03:57:15;98474.91;;;19.64;66.15
63009;BME280;49099;28.428;-16.488;2023-05-11T03:59:42;98474.31;;;19.59;66.05
63009;BME280;49099;28.428;-16.488;2023-05-11T04:02:09;98480.97;;;19.61;65.95
63009;BME280;49099;28.428;-16.488;2023-05-11T04:04:37;98475.56;;;19.61;66.04
63009;BME280;49099;28.428;-16.488;2023-05-11T04:07:04;98473.50;;;19.58;66.08
63009;BME280;49099;28.428;-16.488;2023-05-11T04:09:31;98478.91;;;19.58;65.87
63009;BME280;49099;28.428;-16.488;2023-05-11T04:11:58;98478.09;;;19.58;65.24
63009;BME280;49099;28.428;-16.488;2023-05-11T04:14:25;98474.47;;;19.62;65.37
63009;BME280;49099;28.428;-16.488;2023-05-11T04:16:53;98473.34;;;19.63;65.06
63009;BME280;49099;28.428;-16.488;2023-05-11T04:19:20;98470.19;;;19.61;65.07
63009;BME280;49099;28.428;-16.488;2023-05-11T04:21:47;98472.88;;;19.61;65.33
63009;BME280;49099;28.428;-16.488;2023-05-11T04:24:14;98470.19;;;19.61;65.04
63009;BME280;49099;28.428;-16.488;2023-05-11T04:26:41;98472.88;;;19.61;65.24
63009;BME280;49099;28.428;-16.488;2023-05-11T04:29:08;98477.44;;;19.61;65.10
63009;BME280;49099;28.428;-16.488;2023-05-11T04:31:36;98473.97;;;19.60;65.12
63009;BME280;49099;28.428;-16.488;2023-05-11T04:34:05;98478.09;;;19.58;65.06
63009;BME280;49099;28.428;-16.488;2023-05-11T04:36:33;98490.59;;;19.62;65.27
63009;BME280;49099;28.428;-16.488;2023-05-11T04:39:00;98485.84;;;19.59;65.17
63009;BME280;49099;28.428;-16.488;2023-05-11T04:41:29;98505.63;;;19.63;65.31
63009;BME280;49099;28.428;-16.488;2023-05-11T04:43:56;98495.38;;;19.57;65.33
63009;BME280;49099;28.428;-16.488;2023-05-11T04:46:23;98497.25;;;19.56;65.00
63009;BME280;49099;28.428;-16.488;2023-05-11T04:48:50;98496.78;;;19.54;65.15
63009;BME280;49099;28.428;-16.488;2023-05-11T04:51:17;98489.78;;;19.53;64.57
63009;BME280;49099;28.428;-16.488;2023-05-11T04:53:44;98495.03;;;19.49;64.36
63009;BME280;49099;28.428;-16.488;2023-05-11T04:56:11;98498.38;;;19.46;64.07
63009;BME280;49099;28.428;-16.488;2023-05-11T04:58:38;98492.22;;;19.46;64.28
63009;BME280;49099;28.428;-16.488;2023-05-11T05:01:06;98487.16;;;19.36;64.43
63009;BME280;49099;28.428;-16.488;2023-05-11T05:03:33;98491.13;;;19.38;64.68
63009;BME280;49099;28.428;-16.488;2023-05-11T05:06:00;98503.81;;;19.38;64.94
63009;BME280;49099;28.428;-16.488;2023-05-11T05:08:27;98489.25;;;19.39;64.89
63009;BME280;49099;28.428;-16.488;2023-05-11T05:10:54;98493.34;;;19.36;64.98
63009;BME280;49099;28.428;-16.488;2023-05-11T05:13:22;98488.28;;;19.35;65.11
63009;BME280;49099;28.428;-16.488;2023-05-11T05:15:49;98495.91;;;19.33;65.55
63009;BME280;49099;28.428;-16.488;2023-05-11T05:18:16;98492.56;;;19.27;65.92
63009;BME280;49099;28.428;-16.488;2023-05-11T05:20:43;98490.22;;;19.26;66.32
63009;BME280;49099;28.428;-16.488;2023-05-11T05:23:11;98499.41;;;19.25;66.64
63009;BME280;49099;28.428;-16.488;2023-05-11T05:25:38;98502.53;;;19.27;66.72
63009;BME280;49099;28.428;-16.488;2023-05-11T05:28:05;98497.16;;;19.27;66.89
63009;BME280;49099;28.428;-16.488;2023-05-11T05:30:32;98505.22;;;19.27;66.48
63009;BME280;49099;28.428;-16.488;2023-05-11T05:32:59;98513.78;;;19.20;66.57
63009;BME280;49099;28.428;-16.488;2023-05-11T05:35:26;98510.31;;;19.19;66.70
63009;BME280;49099;28.428;-16.488;2023-05-11T05:37:54;98516.00;;;19.27;66.56
63009;BME280;49099;28.428;-16.488;2023-05-11T05:40:21;98505.56;;;19.25;66.55
63009;BME280;49099;28.428;-16.488;2023-05-11T05:42:48;98516.94;;;19.31;66.61
63009;BME280;49099;28.428;-16.488;2023-05-11T05:45:15;98506.31;;;19.34;66.54
63009;BME280;49099;28.428;-16.488;2023-05-11T05:47:42;98512.03;;;19.33;66.16
63009;BME280;49099;28.428;-16.488;2023-05-11T05:50:10;98519.63;;;19.31;65.85
63009;BME280;49099;28.428;-16.488;2023-05-11T05:52:37;98511.06;;;19.29;66.22
63009;BME280;49099;28.428;-16.488;2023-05-11T05:55:05;98528.78;;;19.30;66.36
63009;BME280;49099;28.428;-16.488;2023-05-11T05:57:32;98520.72;;;19.30;66.18
63009;BME280;49099;28.428;-16.488;2023-05-11T05:59:59;98518.84;;;19.30;66.59
63009;BME280;49099;28.428;-16.488;2023-05-11T06:02:26;98517.88;;;19.26;66.73
63009;BME280;49099;28.428;-16.488;2023-05-11T06:04:53;98517.25;;;19.29;66.85
63009;BME280;49099;28.428;-16.488;2023-05-11T06:07:21;98522.00;;;19.32;66.55
63009;BME280;49099;28.428;-16.488;2023-05-11T06:09:48;98523.09;;;19.40;66.75
63009;BME280;49099;28.428;-16.488;2023-05-11T06:12:15;98521.97;;;19.41;66.25
63009;BME280;49099;28.428;-16.488;2023-05-11T06:14:42;98519.75;;;19.43;66.10
63009;BME280;49099;28.428;-16.488;2023-05-11T06:17:09;98527.19;;;19.46;65.76
63009;BME280;49099;28.428;-16.488;2023-05-11T06:19:36;98530.97;;;19.45;65.98
63009;BME280;49099;28.428;-16.488;2023-05-11T06:22:04;98529.38;;;19.44;65.56
63009;BME280;49099;28.428;-16.488;2023-05-11T06:24:32;98533.19;;;19.43;65.79
63009;BME280;49099;28.428;-16.488;2023-05-11T06:27:01;98535.09;;;19.42;65.55
63009;BME280;49099;28.428;-16.488;2023-05-11T06:29:31;98534.78;;;19.44;65.29
63009;BME280;49099;28.428;-16.488;2023-05-11T06:31:58;98534.31;;;19.42;65.63
63009;BME280;49099;28.428;-16.488;2023-05-11T06:34:26;98536.34;;;19.45;65.88
63009;BME280;49099;28.428;-16.488;2023-05-11T06:36:53;98539.53;;;19.47;65.75
63009;BME280;49099;28.428;-16.488;2023-05-11T06:39:20;98546.03;;;19.46;65.54
63009;BME280;49099;28.428;-16.488;2023-05-11T06:41:50;98539.53;;;19.47;66.00
63009;BME280;49099;28.428;-16.488;2023-05-11T06:44:20;98545.81;;;19.51;65.71
63009;BME280;49099;28.428;-16.488;2023-05-11T06:46:47;98546.28;;;19.53;65.49
63009;BME280;49099;28.428;-16.488;2023-05-11T06:49:14;98540.63;;;19.55;65.21
63009;BME280;49099;28.428;-16.488;2023-05-11T06:51:42;98548.22;;;19.61;65.13
63009;BME280;49099;28.428;-16.488;2023-05-11T06:54:09;98546.63;;;19.69;65.03
63009;BME280;49099;28.428;-16.488;2023-05-11T06:56:36;98554.00;;;19.81;64.76
63009;BME280;49099;28.428;-16.488;2023-05-11T06:59:03;98552.84;;;19.90;64.29
63009;BME280;49099;28.428;-16.488;2023-05-11T07:01:30;98546.66;;;19.90;64.53
63009;BME280;49099;28.428;-16.488;2023-05-11T07:03:58;98553.63;;;19.91;64.51
63009;BME280;49099;28.428;-16.488;2023-05-11T07:06:25;98553.28;;;20.01;64.29
63009;BME280;49099;28.428;-16.488;2023-05-11T07:08:52;98556.91;;;20.05;64.19
63009;BME280;49099;28.428;-16.488;2023-05-11T07:11:20;98549.59;;;20.06;64.06
63009;BME280;49099;28.428;-16.488;2023-05-11T07:13:47;98551.97;;;20.07;63.98
63009;BME280;49099;28.428;-16.488;2023-05-11T07:16:14;98560.53;;;20.09;63.80
63009;BME280;49099;28.428;-16.488;2023-05-11T07:18:42;98563.03;;;20.14;63.20
63009;BME280;49099;28.428;-16.488;2023-05-11T07:21:09;98562.84;;;20.19;62.83
63009;BME280;49099;28.428;-16.488;2023-05-11T07:23:36;98567.56;;;20.22;63.16
63009;BME280;49099;28.428;-16.488;2023-05-11T07:26:03;98570.09;;;20.27;62.83
63009;BME280;49099;28.428;-16.488;2023-05-11T07:28:35;98566.75;;;20.30;62.64
63009;BME280;49099;28.428;-16.488;2023-05-11T07:31:03;98564.53;;;20.33;62.21
63009;BME280;49099;28.428;-16.488;2023-05-11T07:33:30;98566.56;;;20.36;61.72
63009;BME280;49099;28.428;-16.488;2023-05-11T07:35:59;98567.00;;;20.38;61.44
63009;BME280;49099;28.428;-16.488;2023-05-11T07:38:26;98566.38;;;20.41;61.51
63009;BME280;49099;28.428;-16.488;2023-05-11T07:40:53;98573.19;;;20.47;61.57
63009;BME280;49099;28.428;-16.488;2023-05-11T07:43:20;98566.34;;;20.49;61.30
63009;BME280;49099;28.428;-16.488;2023-05-11T07:45:47;98568.53;;;20.56;61.67
63009;BME280;49099;28.428;-16.488;2023-05-11T07:48:14;98571.81;;;20.62;60.57
63009;BME280;49099;28.428;-16.488;2023-05-11T07:50:42;98574.19;;;20.63;60.33
63009;BME280;49099;28.428;-16.488;2023-05-11T07:53:09;98583.66;;;20.69;60.46
63009;BME280;49099;28.428;-16.488;2023-05-11T07:55:36;98584.84;;;20.80;60.70
63009;BME280;49099;28.428;-16.488;2023-05-11T07:58:03;98592.09;;;20.89;60.47
63009;BME280;49099;28.428;-16.488;2023-05-11T08:00:30;98600.63;;;20.91;60.17
63009;BME280;49099;28.428;-16.488;2023-05-11T08:02:58;98593.91;;;20.97;60.42
63009;BME280;49099;28.428;-16.488;2023-05-11T08:05:26;98586.97;;;20.96;60.91
63009;BME280;49099;28.428;-16.488;2023-05-11T08:07:53;98590.78;;;20.95;61.33
63009;BME280;49099;28.428;-16.488;2023-05-11T08:10:20;98594.72;;;20.97;61.21
63009;BME280;49099;28.428;-16.488;2023-05-11T08:12:47;98590.09;;;20.98;61.56
63009;BME280;49099;28.428;-16.488;2023-05-11T08:15:14;98591.56;;;20.95;61.66
63009;BME280;49099;28.428;-16.488;2023-05-11T08:17:41;98582.88;;;20.90;61.37
63009;BME280;49099;28.428;-16.488;2023-05-11T08:20:09;98581.03;;;20.81;61.68
63009;BME280;49099;28.428;-16.488;2023-05-11T08:22:36;98584.84;;;20.80;61.40
63009;BME280;49099;28.428;-16.488;2023-05-11T08:25:03;98584.66;;;20.85;61.32
63009;BME280;49099;28.428;-16.488;2023-05-11T08:27:31;98591.81;;;20.81;61.87
63009;BME280;49099;28.428;-16.488;2023-05-11T08:29:58;98594.06;;;20.79;61.94
63009;BME280;49099;28.428;-16.488;2023-05-11T08:32:28;98592.16;;;20.80;62.22
63009;BME280;49099;28.428;-16.488;2023-05-11T08:34:56;98593.66;;;20.90;62.08
63009;BME280;49099;28.428;-16.488;2023-05-11T08:37:23;98598.66;;;21.00;61.59
63009;BME280;49099;28.428;-16.488;2023-05-11T08:39:50;98603.72;;;21.01;61.84
63009;BME280;49099;28.428;-16.488;2023-05-11T08:42:17;98604.97;;;21.04;61.61
63009;BME280;49099;28.428;-16.488;2023-05-11T08:44:47;98604.31;;;21.07;61.82
63009;BME280;49099;28.428;-16.488;2023-05-11T08:47:15;98593.78;;;21.14;61.31
63009;BME280;49099;28.428;-16.488;2023-05-11T08:49:50;98594.91;;;21.13;61.07
63009;BME280;49099;28.428;-16.488;2023-05-11T08:52:19;98600.09;;;21.18;60.85
63009;BME280;49099;28.428;-16.488;2023-05-11T08:54:46;98610.22;;;21.21;61.03
63009;BME280;49099;28.428;-16.488;2023-05-11T08:57:14;98606.53;;;21.26;60.72
63009;BME280;49099;28.428;-16.488;2023-05-11T08:59:43;98609.81;;;21.31;60.41
63009;BME280;49099;28.428;-16.488;2023-05-11T09:02:15;98610.09;;;21.38;59.77
63009;BME280;49099;28.428;-16.488;2023-05-11T09:04:44;98613.72;;;21.42;59.65
63009;BME280;49099;28.428;-16.488;2023-05-11T09:07:15;98609.69;;;21.49;59.88
63009;BME280;49099;28.428;-16.488;2023-05-11T09:09:45;98613.28;;;21.53;60.06
63009;BME280;49099;28.428;-16.488;2023-05-11T09:12:14;98614.84;;;21.41;60.78
63009;BME280;49099;28.428;-16.488;2023-05-11T09:14:42;98616.25;;;21.39;59.77
63009;BME280;49099;28.428;-16.488;2023-05-11T09:17:09;98614.03;;;21.41;60.08
63009;BME280;49099;28.428;-16.488;2023-05-11T09:19:55;98615.19;;;21.52;59.27
63009;BME280;49099;28.428;-16.488;2023-05-11T09:22:23;98613.88;;;21.58;60.56
63009;BME280;49099;28.428;-16.488;2023-05-11T09:24:50;98622.06;;;21.62;60.59
63009;BME280;49099;28.428;-16.488;2023-05-11T09:27:17;98617.16;;;21.64;60.70
63009;BME280;49099;28.428;-16.488;2023-05-11T09:29:46;98621.44;;;21.65;60.51
63009;BME280;49099;28.428;-16.488;2023-05-11T09:32:17;98621.09;;;21.66;59.58
63009;BME280;49099;28.428;-16.488;2023-05-11T09:34:45;98631.34;;;21.73;59.49
63009;BME280;49099;28.428;-16.488;2023-05-11T09:37:17;98637.00;;;21.80;60.00
63009;BME280;49099;28.428;-16.488;2023-05-11T09:39:44;98628.66;;;21.85;60.95
63009;BME280;49099;28.428;-16.488;2023-05-11T09:42:31;98628.09;;;21.80;61.02
63009;BME280;49099;28.428;-16.488;2023-05-11T09:44:58;98641.13;;;21.78;61.50
63009;BME280;49099;28.428;-16.488;2023-05-11T09:47:25;98640.34;;;21.77;62.26
63009;BME280;49099;28.428;-16.488;2023-05-11T09:49:53;98636.44;;;21.54;64.10
63009;BME280;49099;28.428;-16.488;2023-05-11T09:52:20;98638.69;;;21.52;64.21
63009;BME280;49099;28.428;-16.488;2023-05-11T09:54:50;98644.25;;;21.67;63.32
63009;BME280;49099;28.428;-16.488;2023-05-11T09:57:25;98639.94;;;21.87;62.42
63009;BME280;49099;28.428;-16.488;2023-05-11T09:59:54;98634.66;;;21.91;61.92
63009;BME280;49099;28.428;-16.488;2023-05-11T10:02:26;98639.72;;;21.92;61.99
63009;BME280;49099;28.428;-16.488;2023-05-11T10:04:56;98639.25;;;21.90;61.81
63009;BME280;49099;28.428;-16.488;2023-05-11T10:07:43;98638.38;;;21.98;61.94
63009;BME280;49099;28.428;-16.488;2023-05-11T10:10:11;98631.84;;;21.87;62.07
63009;BME280;49099;28.428;-16.488;2023-05-11T10:12:39;98642.75;;;21.91;61.97
63009;BME280;49099;28.428;-16.488;2023-05-11T10:15:08;98640.38;;;21.89;61.70
63009;BME280;49099;28.428;-16.488;2023-05-11T10:17:36;98649.84;;;21.95;62.43
63009;BME280;49099;28.428;-16.488;2023-05-11T10:20:04;98651.44;;;21.96;62.24
63009;BME280;49099;28.428;-16.488;2023-05-11T10:22:32;98651.19;;;22.02;61.92
63009;BME280;49099;28.428;-16.488;2023-05-11T10:25:00;98653.09;;;22.01;62.01
63009;BME280;49099;28.428;-16.488;2023-05-11T10:27:30;98645.78;;;21.89;62.18
63009;BME280;49099;28.428;-16.488;2023-05-11T10:29:58;98657.22;;;21.74;63.00
63009;BME280;49099;28.428;-16.488;2023-05-11T10:32:25;98658.22;;;21.69;63.58
63009;BME280;49099;28.428;-16.488;2023-05-11T10:34:54;98668.72;;;21.83;63.38
63009;BME280;49099;28.428;-16.488;2023-05-11T10:37:22;98664.00;;;21.80;62.88
63009;BME280;49099;28.428;-16.488;2023-05-11T10:39:50;98664.44;;;21.82;63.30
63009;BME280;49099;28.428;-16.488;2023-05-11T10:45:18;98668.72;;;21.83;63.63
63009;BME280;49099;28.428;-16.488;2023-05-11T10:51:04;98664.25;;;21.87;62.03
63009;BME280;49099;28.428;-16.488;2023-05-11T10:54:09;98660.84;;;21.90;61.69
63009;BME280;49099;28.428;-16.488;2023-05-11T10:56:51;98669.22;;;21.97;62.00
63009;BME280;49099;28.428;-16.488;2023-05-11T11:02:18;98656.94;;;22.00;61.32
63009;BME280;49099;28.428;-16.488;2023-05-11T11:04:47;98666.31;;;22.03;61.91
63009;BME280;49099;28.428;-16.488;2023-05-11T11:07:16;98666.75;;;22.05;61.56
63009;BME280;49099;28.428;-16.488;2023-05-11T11:09:56;98661.63;;;22.24;61.33
63009;BME280;49099;28.428;-16.488;2023-05-11T11:12:27;98660.06;;;22.35;60.65
63009;BME280;49099;28.428;-16.488;2023-05-11T11:14:58;98654.19;;;22.45;60.45
63009;BME280;49099;28.428;-16.488;2023-05-11T11:17:30;98643.16;;;22.50;59.05
63009;BME280;49099;28.428;-16.488;2023-05-11T11:19:58;98640.69;;;22.45;59.87
63009;BME280;49099;28.428;-16.488;2023-05-11T11:25:11;98643.41;;;22.58;60.87
63009;BME280;49099;28.428;-16.488;2023-05-11T11:30:20;98637.31;;;22.73;60.46
63009;BME280;49099;28.428;-16.488;2023-05-11T11:32:49;98629.84;;;22.82;59.94
63009;BME280;49099;28.428;-16.488;2023-05-11T11:38:12;98628.72;;;22.83;58.97
63009;BME280;49099;28.428;-16.488;2023-05-11T11:40:44;98632.34;;;22.75;58.91
63009;BME280;49099;28.428;-16.488;2023-05-11T11:43:25;98625.56;;;22.69;59.92
63009;BME280;49099;28.428;-16.488;2023-05-11T11:46:02;98635.50;;;22.65;60.01
63009;BME280;49099;28.428;-16.488;2023-05-11T11:48:37;98632.13;;;22.68;59.45
63009;BME280;49099;28.428;-16.488;2023-05-11T11:51:12;98631.69;;;22.66;58.97
63009;BME280;49099;28.428;-16.488;2023-05-11T11:58:57;98641.44;;;22.70;59.76
63009;BME280;49099;28.428;-16.488;2023-05-11T12:01:27;98654.19;;;22.70;60.64
63009;BME280;49099;28.428;-16.488;2023-05-11T12:06:40;98640.09;;;22.76;59.83
63009;BME280;49099;28.428;-16.488;2023-05-11T12:09:10;98646.28;;;22.77;58.84
63009;BME280;49099;28.428;-16.488;2023-05-11T12:11:38;98642.47;;;22.78;59.55
63009;BME280;49099;28.428;-16.488;2023-05-11T12:14:08;98640.44;;;22.87;59.58
63009;BME280;49099;28.428;-16.488;2023-05-11T12:16:36;98630.19;;;22.80;59.79
63009;BME280;49099;28.428;-16.488;2023-05-11T12:19:03;98651.25;;;22.99;59.29
63009;BME280;49099;28.428;-16.488;2023-05-11T12:21:31;98654.94;;;23.07;58.49
63009;BME280;49099;28.428;-16.488;2023-05-11T12:24:03;98654.47;;;23.17;57.78
63009;BME280;49099;28.428;-16.488;2023-05-11T12:26:32;98647.97;;;23.06;57.27
63009;BME280;49099;28.428;-16.488;2023-05-11T12:29:08;98640.28;;;23.08;57.12
63009;BME280;49099;28.428;-16.488;2023-05-11T12:31:44;98637.28;;;23.25;57.67
63009;BME280;49099;28.428;-16.488;2023-05-11T12:34:14;98647.34;;;23.25;58.18
63009;BME280;49099;28.428;-16.488;2023-05-11T12:36:43;98645.88;;;23.27;58.02
63009;BME280;49099;28.428;-16.488;2023-05-11T12:39:21;98651.16;;;23.36;57.95
63009;BME280;49099;28.428;-16.488;2023-05-11T12:41:49;98651.72;;;23.57;57.66
63009;BME280;49099;28.428;-16.488;2023-05-11T12:44:17;98649.53;;;23.75;57.09
63009;BME280;49099;28.428;-16.488;2023-05-11T12:46:46;98658.44;;;23.76;56.15
63009;BME280;49099;28.428;-16.488;2023-05-11T12:49:17;98648.19;;;23.69;55.88
63009;BME280;49099;28.428;-16.488;2023-05-11T12:54:37;98639.91;;;23.78;56.46
63009;BME280;49099;28.428;-16.488;2023-05-11T12:57:07;98644.00;;;23.72;56.59
63009;BME280;49099;28.428;-16.488;2023-05-11T12:59:38;98634.03;;;23.60;56.79
63009;BME280;49099;28.428;-16.488;2023-05-11T13:04:36;98628.47;;;23.56;56.64
63009;BME280;49099;28.428;-16.488;2023-05-11T13:07:03;98624.38;;;23.75;56.46
63009;BME280;49099;28.428;-16.488;2023-05-11T13:09:31;98634.69;;;23.85;56.72
63009;BME280;49099;28.428;-16.488;2023-05-11T13:12:12;98626.56;;;23.85;56.75
63009;BME280;49099;28.428;-16.488;2023-05-11T13:14:40;98621.31;;;23.76;57.34
63009;BME280;49099;28.428;-16.488;2023-05-11T13:17:07;98630.66;;;23.79;56.54
63009;BME280;49099;28.428;-16.488;2023-05-11T13:19:34;98620.78;;;23.86;56.31
63009;BME280;49099;28.428;-16.488;2023-05-11T13:22:03;98613.72;;;23.82;56.47
63009;BME280;49099;28.428;-16.488;2023-05-11T13:24:30;98610.38;;;23.73;55.99
63009;BME280;49099;28.428;-16.488;2023-05-11T13:27:00;98618.25;;;23.78;55.11
63009;BME280;49099;28.428;-16.488;2023-05-11T13:29:27;98610.19;;;23.66;55.03
63009;BME280;49099;28.428;-16.488;2023-05-11T13:31:54;98605.66;;;23.70;54.78
63009;BME280;49099;28.428;-16.488;2023-05-11T13:34:21;98605.41;;;23.75;55.11